createdAt,value
2023-02-25T00:01:07.408Z,96951.53
2023-02-25T00:03:10.863Z,96954.13
2023-02-25T00:05:14.239Z,96952.22
2023-02-25T00:07:17.304Z,96954.34
2023-02-25T00:09:20.443Z,96958.50
2023-02-25T00:11:24.987Z,96963.78
2023-02-25T00:13:28.580Z,96963.91
2023-02-25T00:15:33.105Z,96962.47
2023-02-25T00:17:38.034Z,96960.69
2023-02-25T00:19:41.338Z,96971.16
2023-02-25T00:21:44.649Z,96960.69
2023-02-25T00:23:49.460Z,96963.28
2023-02-25T00:26:00.121Z,96962.00
2023-02-25T00:28:06.302Z,96957.63
2023-02-25T00:30:11.668Z,96961.19
2023-02-25T00:32:16.378Z,96954.13
2023-02-25T00:34:20.379Z,96958.72
2023-02-25T00:36:25.870Z,96959.66
2023-02-25T00:38:29.535Z,96949.38
2023-02-25T00:40:32.662Z,96955.16
2023-02-25T00:42:35.792Z,96955.03
2023-02-25T00:44:39.545Z,96958.50
2023-02-25T00:46:42.701Z,96954.56
2023-02-25T00:48:47.361Z,96956.56
2023-02-25T00:50:50.431Z,96972.00
2023-02-25T00:52:53.627Z,96962.69
2023-02-25T00:54:57.321Z,96964.81
2023-02-25T00:57:00.506Z,96966.50
2023-02-25T00:59:03.947Z,96966.72
2023-02-25T01:01:09.253Z,96967.53
2023-02-25T01:03:12.433Z,96970.47
2023-02-25T01:05:17.584Z,96958.47
2023-02-25T01:07:21.928Z,96950.22
2023-02-25T01:09:25.125Z,96949.59
2023-02-25T01:11:31.108Z,96951.97
2023-02-25T01:13:34.303Z,96944.72
2023-02-25T01:15:37.510Z,96951.69
2023-02-25T01:17:40.991Z,96946.63
2023-02-25T01:19:44.547Z,96945.06
2023-02-25T01:21:54.494Z,96949.53
2023-02-25T01:23:59.464Z,96958.13
2023-02-25T01:26:04.982Z,96957.19
2023-02-25T01:28:08.020Z,96964.75
2023-02-25T01:30:12.919Z,96967.34
2023-02-25T01:32:16.502Z,96966.19
2023-02-25T01:34:20.127Z,96958.22
2023-02-25T01:36:25.269Z,96965.03
2023-02-25T01:38:30.318Z,96967.19
2023-02-25T01:40:33.573Z,96971.44
2023-02-25T01:42:37.639Z,96978.13
2023-02-25T01:45:17.749Z,96981.56
2023-02-25T01:47:21.297Z,96978.88
2023-02-25T01:49:29.108Z,96978.03
2023-02-25T01:51:32.799Z,96986.66
2023-02-25T01:53:40.273Z,96987.47
2023-02-25T01:55:43.702Z,96989.13
2023-02-25T01:57:47.061Z,97003.84
2023-02-25T01:59:50.535Z,97001.25
2023-02-25T02:01:54.132Z,96993.25
2023-02-25T02:03:57.293Z,96994.22
2023-02-25T02:06:04.859Z,96997.50
2023-02-25T02:08:08.952Z,96997.63
2023-02-25T02:10:13.758Z,96980.03
2023-02-25T02:12:16.930Z,96977.44
2023-02-25T02:14:24.923Z,96980.63
2023-02-25T02:16:42.257Z,96977.53
2023-02-25T02:18:49.278Z,96975.72
2023-02-25T02:20:59.325Z,96975.00
2023-02-25T02:23:24.151Z,96972.31
2023-02-25T02:25:55.090Z,96968.91
2023-02-25T02:28:33.731Z,96982.78
2023-02-25T02:30:42.324Z,96979.59
2023-02-25T02:32:51.337Z,96989.00
2023-02-25T02:35:00.319Z,96987.84
2023-02-25T02:37:15.626Z,96988.19
2023-02-25T02:39:26.316Z,96988.63
2023-02-25T02:41:35.005Z,96993.00
2023-02-25T02:43:42.444Z,96997.22
2023-02-25T02:45:48.907Z,97001.25
2023-02-25T02:47:55.906Z,97000.53
2023-02-25T02:50:02.041Z,97005.72
2023-02-25T02:52:08.727Z,97001.47
2023-02-25T02:54:15.677Z,97013.72
2023-02-25T02:56:20.128Z,97014.63
2023-02-25T02:58:27.363Z,97025.28
2023-02-25T03:00:35.182Z,97023.66
2023-02-25T03:02:39.808Z,97016.81
2023-02-25T03:04:46.498Z,97024.56
2023-02-25T03:06:52.823Z,97016.19
2023-02-25T03:08:59.644Z,97016.59
2023-02-25T03:11:02.855Z,97029.47
2023-02-25T03:13:06.020Z,97024.94
2023-02-25T03:15:10.071Z,97031.97
2023-02-25T03:17:16.088Z,97022.66
2023-02-25T03:19:21.625Z,97029.81
2023-02-25T03:21:29.322Z,97016.03
2023-02-25T03:23:33.709Z,97014.63
2023-02-25T03:25:39.521Z,97019.91
2023-02-25T03:27:44.370Z,97018.34
2023-02-25T03:29:50.582Z,97025.28
2023-02-25T03:31:58.548Z,97016.06
2023-02-25T03:34:06.037Z,97017.41
2023-02-25T03:36:13.194Z,97014.19
2023-02-25T03:38:24.168Z,97017.94
2023-02-25T03:40:28.138Z,97025.19
2023-02-25T03:42:34.304Z,97021.06
2023-02-25T03:44:43.797Z,97028.19
2023-02-25T03:46:48.355Z,97037.63
2023-02-25T03:48:52.400Z,97030.06
2023-02-25T03:51:00.316Z,97036.81
2023-02-25T03:53:04.774Z,97040.22
2023-02-25T03:55:25.681Z,97044.38
2023-02-25T03:57:37.074Z,97048.81
2023-02-25T03:59:40.196Z,97057.22
2023-02-25T04:01:44.200Z,97055.44
2023-02-25T04:03:47.437Z,97061.44
2023-02-25T04:05:51.389Z,97072.34
2023-02-25T04:07:54.842Z,97062.56
2023-02-25T04:09:58.230Z,97066.09
2023-02-25T04:12:02.878Z,97073.75
2023-02-25T04:14:06.606Z,97061.44
2023-02-25T04:16:09.728Z,97073.34
2023-02-25T04:18:13.251Z,97068.16
2023-02-25T04:20:17.306Z,97071.50
2023-02-25T04:22:20.480Z,97079.97
2023-02-25T04:24:23.544Z,97079.00
2023-02-25T04:26:26.740Z,97078.09
2023-02-25T04:28:31.141Z,97081.41
2023-02-25T04:30:34.589Z,97073.97
2023-02-25T04:32:37.921Z,97072.91
2023-02-25T04:34:41.013Z,97070.31
2023-02-25T04:36:44.545Z,97069.41
2023-02-25T04:38:47.623Z,97078.81
2023-02-25T04:40:52.310Z,97085.53
2023-02-25T04:42:55.356Z,97082.97
2023-02-25T04:44:59.788Z,97085.53
2023-02-25T04:47:03.037Z,97090.63
2023-02-25T04:49:07.049Z,97091.34
2023-02-25T04:51:10.812Z,97087.13
2023-02-25T04:53:14.057Z,97088.75
2023-02-25T04:55:18.028Z,97098.28
2023-02-25T04:57:21.126Z,97092.28
2023-02-25T04:59:26.668Z,97088.75
2023-02-25T05:01:31.667Z,97092.28
2023-02-25T05:03:35.131Z,97087.31
2023-02-25T05:05:40.324Z,97092.72
2023-02-25T05:07:43.450Z,97087.53
2023-02-25T05:09:46.485Z,97091.03
2023-02-25T05:11:49.498Z,97104.00
2023-02-25T05:13:53.043Z,97101.50
2023-02-25T05:16:05.421Z,97100.59
2023-02-25T05:18:09.884Z,97098.09
2023-02-25T05:20:13.635Z,97098.91
2023-02-25T05:22:17.176Z,97096.22
2023-02-25T05:24:23.521Z,97088.44
2023-02-25T05:26:26.896Z,97093.84
2023-02-25T05:28:30.091Z,97094.81
2023-02-25T05:30:33.162Z,97086.06
2023-02-25T05:32:36.439Z,97083.69
2023-02-25T05:34:41.553Z,97077.81
2023-02-25T05:36:46.858Z,97070.34
2023-02-25T05:38:50.367Z,97073.03
2023-02-25T05:40:53.356Z,97076.44
2023-02-25T05:42:56.448Z,97076.34
2023-02-25T05:44:59.490Z,97075.44
2023-02-25T05:47:02.584Z,97072.03
2023-02-25T05:49:05.702Z,97071.28
2023-02-25T05:51:12.345Z,97078.94
2023-02-25T05:53:15.958Z,97081.63
2023-02-25T05:55:19.136Z,97082.59
2023-02-25T05:57:23.900Z,97079.88
2023-02-25T05:59:27.241Z,97085.06
2023-02-25T06:01:31.581Z,97085.88
2023-02-25T06:03:34.709Z,97085.88
2023-02-25T06:05:41.406Z,97090.16
2023-02-25T06:07:45.853Z,97100.19
2023-02-25T06:09:48.832Z,97098.63
2023-02-25T06:11:52.337Z,97095.13
2023-02-25T06:13:56.873Z,97095.94
2023-02-25T06:16:00.066Z,97094.06
2023-02-25T06:18:03.149Z,97100.19
2023-02-25T06:20:07.790Z,97095.22
2023-02-25T06:22:10.852Z,97103.59
2023-02-25T06:24:16.322Z,97112.19
2023-02-25T06:26:20.077Z,97117.38
2023-02-25T06:28:23.989Z,97117.38
2023-02-25T06:30:27.862Z,97117.16
2023-02-25T06:32:31.096Z,97111.16
2023-02-25T06:34:34.628Z,97115.28
2023-02-25T06:36:37.742Z,97105.88
2023-02-25T06:38:41.009Z,97111.88
2023-02-25T06:40:45.471Z,97108.47
2023-02-25T06:42:48.543Z,97103.88
2023-02-25T06:44:51.686Z,97108.25
2023-02-25T06:46:55.864Z,97108.25
2023-02-25T06:48:58.981Z,97107.31
2023-02-25T06:51:02.945Z,97111.56
2023-02-25T06:53:06.142Z,97121.91
2023-02-25T06:55:10.538Z,97121.91
2023-02-25T06:57:14.911Z,97124.31
2023-02-25T06:59:18.347Z,97126.06
2023-02-25T07:01:21.443Z,97127.72
2023-02-25T07:03:24.547Z,97135.59
2023-02-25T07:05:27.919Z,97125.22
2023-02-25T07:07:33.421Z,97128.56
2023-02-25T07:09:36.470Z,97129.16
2023-02-25T07:11:39.520Z,97119.22
2023-02-25T07:13:44.477Z,97136.75
2023-02-25T07:15:47.523Z,97137.47
2023-02-25T07:17:50.644Z,97146.03
2023-02-25T07:19:56.064Z,97154.47
2023-02-25T07:21:59.232Z,97151.78
2023-02-25T07:24:02.342Z,97141.19
2023-02-25T07:26:06.526Z,97145.53
2023-02-25T07:28:09.519Z,97142.84
2023-02-25T07:30:14.941Z,97152.88
2023-02-25T07:32:18.162Z,97158.81
2023-02-25T07:34:21.375Z,97163.03
2023-02-25T07:36:27.232Z,97143.97
2023-02-25T07:38:30.279Z,97144.69
2023-02-25T07:40:33.263Z,97145.44
2023-02-25T07:42:36.330Z,97145.31
2023-02-25T07:44:42.403Z,97142.53
2023-02-25T07:46:46.800Z,97147.50
2023-02-25T07:48:50.178Z,97126.66
2023-02-25T07:50:53.290Z,97130.69
2023-02-25T07:52:56.491Z,97140.94
2023-02-25T07:54:59.757Z,97136.56
2023-02-25T07:57:02.777Z,97141.75
2023-02-25T07:59:06.182Z,97146.94
2023-02-25T08:01:10.304Z,97141.53
2023-02-25T08:03:14.830Z,97143.91
2023-02-25T08:05:21.905Z,97133.16
2023-02-25T08:07:26.588Z,97134.94
2023-02-25T08:09:29.826Z,97126.19
2023-02-25T08:11:33.223Z,97127.16
2023-02-25T08:13:36.828Z,97135.97
2023-02-25T08:15:41.949Z,97135.16
2023-02-25T08:17:45.345Z,97135.97
2023-02-25T08:19:49.997Z,97141.16
2023-02-25T08:21:54.870Z,97142.00
2023-02-25T08:23:57.932Z,97152.13
2023-02-25T08:26:01.564Z,97164.97
2023-02-25T08:28:04.730Z,97167.47
2023-02-25T08:30:09.009Z,97158.53
2023-02-25T08:32:12.229Z,97162.06
2023-02-25T08:34:15.345Z,97163.34
2023-02-25T08:36:21.676Z,97149.41
2023-02-25T08:38:24.746Z,97159.56
2023-02-25T08:40:27.868Z,97160.22
2023-02-25T08:42:31.372Z,97159.16
2023-02-25T08:44:34.525Z,97159.78
2023-02-25T08:46:38.964Z,97164.13
2023-02-25T08:48:42.147Z,97162.38
2023-02-25T08:50:45.503Z,97162.28
2023-02-25T08:52:50.055Z,97148.25
2023-02-25T08:54:53.173Z,97154.50
2023-02-25T08:56:57.268Z,97162.16
2023-02-25T08:59:00.549Z,97156.66
2023-02-25T09:01:08.848Z,97151.25
2023-02-25T09:03:12.240Z,97150.94
2023-02-25T09:05:15.569Z,97154.72
2023-02-25T09:07:18.714Z,97153.91
2023-02-25T09:09:23.347Z,97156.19
2023-02-25T09:11:27.058Z,97152.41
2023-02-25T09:13:30.628Z,97162.56
2023-02-25T09:15:33.753Z,97152.94
2023-02-25T09:17:36.805Z,97157.16
2023-02-25T09:19:40.157Z,97152.63
2023-02-25T09:21:43.271Z,97155.69
2023-02-25T09:23:46.747Z,97157.47
2023-02-25T09:25:51.278Z,97152.06
2023-02-25T09:27:54.330Z,97155.38
2023-02-25T09:29:57.432Z,97151.09
2023-02-25T09:32:00.583Z,97153.00
2023-02-25T09:34:06.391Z,97159.00
2023-02-25T09:36:11.641Z,97150.28
2023-02-25T09:38:14.761Z,97149.69
2023-02-25T09:40:22.838Z,97161.00
2023-02-25T09:42:30.829Z,97149.91
2023-02-25T09:44:35.897Z,97147.75
2023-02-25T09:46:43.978Z,97151.38
2023-02-25T09:48:53.626Z,97144.41
2023-02-25T09:51:00.341Z,97150.56
2023-02-25T09:53:07.596Z,97148.91
2023-02-25T09:55:19.599Z,97155.00
2023-02-25T09:57:23.590Z,97156.56
2023-02-25T09:59:29.826Z,97155.00
2023-02-25T10:01:36.807Z,97155.75
2023-02-25T10:03:58.866Z,97162.88
2023-02-25T10:06:05.103Z,97150.63
2023-02-25T10:08:19.096Z,97148.50
2023-02-25T10:10:26.753Z,97154.03
2023-02-25T10:12:35.917Z,97156.72
2023-02-25T10:14:56.877Z,97154.34
2023-02-25T10:17:05.880Z,97153.44
2023-02-25T10:19:16.983Z,97151.53
2023-02-25T10:21:26.718Z,97152.88
2023-02-25T10:23:40.527Z,97147.16
2023-02-25T10:25:50.090Z,97145.03
2023-02-25T10:27:55.459Z,97148.13
2023-02-25T10:30:04.398Z,97135.53
2023-02-25T10:32:18.306Z,97143.47
2023-02-25T10:34:26.059Z,97147.19
2023-02-25T10:36:32.454Z,97138.00
2023-02-25T10:38:36.580Z,97127.28
2023-02-25T10:40:41.306Z,97135.56
2023-02-25T10:42:47.421Z,97127.31
2023-02-25T10:44:51.302Z,97123.44
2023-02-25T10:46:59.325Z,97124.31
2023-02-25T10:49:06.245Z,97135.03
2023-02-25T10:51:12.177Z,97132.78
2023-02-25T10:53:16.668Z,97126.16
2023-02-25T10:55:32.670Z,97124.78
2023-02-25T10:57:42.833Z,97128.06
2023-02-25T10:59:47.604Z,97124.13
2023-02-25T11:01:51.058Z,97110.34
2023-02-25T11:03:58.939Z,97104.66
2023-02-25T11:06:15.661Z,97114.56
2023-02-25T11:08:27.879Z,97116.44
2023-02-25T11:10:31.088Z,97122.78
2023-02-25T11:12:42.317Z,97123.16
2023-02-25T11:14:47.980Z,97123.41
2023-02-25T11:16:51.234Z,97120.03
2023-02-25T11:18:57.722Z,97121.88
2023-02-25T11:21:02.370Z,97117.88
2023-02-25T11:23:05.480Z,97115.28
2023-02-25T11:25:17.032Z,97120.94
2023-02-25T11:27:29.660Z,97130.88
2023-02-25T11:29:36.453Z,97112.94
2023-02-25T11:31:41.662Z,97124.88
2023-02-25T11:33:48.405Z,97118.59
2023-02-25T11:35:59.776Z,97123.56
2023-02-25T11:38:14.989Z,97126.50
2023-02-25T11:40:24.363Z,97131.13
2023-02-25T11:42:30.166Z,97110.56
2023-02-25T11:44:43.309Z,97116.09
2023-02-25T11:46:48.056Z,97113.25
2023-02-25T11:48:52.904Z,97114.91
2023-02-25T11:51:13.302Z,97112.91
2023-02-25T11:53:26.017Z,97110.53
2023-02-25T11:55:42.249Z,97104.03
2023-02-25T11:57:53.097Z,97111.00
2023-02-25T12:00:05.335Z,97113.31
2023-02-25T12:02:25.407Z,97114.94
2023-02-25T12:05:01.898Z,97112.00
2023-02-25T12:07:25.103Z,97117.88
2023-02-25T12:10:05.331Z,97114.22
2023-02-25T12:12:29.907Z,97113.66
2023-02-25T12:15:11.091Z,97112.41
2023-02-25T12:17:43.345Z,97113.47
2023-02-25T12:20:31.107Z,97105.81
2023-02-25T12:23:10.565Z,97114.75
2023-02-25T12:25:20.625Z,97116.50
2023-02-25T12:27:41.176Z,97107.66
2023-02-25T12:29:59.485Z,97113.59
2023-02-25T12:32:22.498Z,97106.28
2023-02-25T12:34:53.874Z,97109.47
2023-02-25T12:37:10.981Z,97113.41
2023-02-25T12:39:38.289Z,97106.22
2023-02-25T12:41:42.132Z,97100.09
2023-02-25T12:43:50.498Z,97098.31
2023-02-25T12:46:06.916Z,97095.84
2023-02-25T12:48:36.367Z,97095.03
2023-02-25T12:50:52.223Z,97097.50
2023-02-25T12:53:13.732Z,97102.63
2023-02-25T12:55:31.529Z,97093.44
2023-02-25T12:57:41.069Z,97089.41
2023-02-25T13:00:07.836Z,97075.97
2023-02-25T13:02:22.497Z,97075.97
2023-02-25T13:04:56.197Z,97071.38
2023-02-25T13:07:48.816Z,97064.69
2023-02-25T13:10:18.385Z,97061.91
2023-02-25T13:12:35.305Z,97070.66
2023-02-25T13:14:47.983Z,97073.50
2023-02-25T13:17:01.154Z,97069.47
2023-02-25T13:19:16.630Z,97080.13
2023-02-25T13:21:31.074Z,97079.31
2023-02-25T13:23:45.326Z,97080.63
2023-02-25T13:25:59.977Z,97077.75
2023-02-25T13:28:14.456Z,97079.06
2023-02-25T13:30:41.503Z,97076.69
2023-02-25T13:32:51.014Z,97072.53
2023-02-25T13:35:06.731Z,97075.47
2023-02-25T13:37:29.220Z,97062.06
2023-02-25T13:40:06.393Z,97070.88
2023-02-25T13:42:28.784Z,97072.16
2023-02-25T13:44:56.081Z,97070.03
2023-02-25T13:47:21.172Z,97066.41
2023-02-25T13:49:49.823Z,97064.16
2023-02-25T13:52:14.596Z,97059.47
2023-02-25T13:54:43.228Z,97059.50
2023-02-25T13:56:57.869Z,97059.78
2023-02-25T13:59:18.147Z,97059.38
2023-02-25T14:01:35.946Z,97059.63
2023-02-25T14:04:36.216Z,97051.00
2023-02-25T14:07:06.507Z,97062.25
2023-02-25T14:09:20.216Z,97051.63
2023-02-25T14:11:43.145Z,97062.59
2023-02-25T14:13:55.970Z,97050.81
2023-02-25T14:16:04.396Z,97063.34
2023-02-25T14:18:26.154Z,97068.53
2023-02-25T14:20:40.378Z,97058.16
2023-02-25T14:22:45.443Z,97060.75
2023-02-25T14:24:54.068Z,97055.19
2023-02-25T14:27:02.971Z,97063.00
2023-02-25T14:29:16.274Z,97055.09
2023-02-25T14:31:23.166Z,97049.44
2023-02-25T14:33:48.752Z,97048.00
2023-02-25T14:36:13.475Z,97058.66
2023-02-25T14:38:23.000Z,97058.03
2023-02-25T14:40:30.944Z,97054.25
2023-02-25T14:42:42.570Z,97060.28
2023-02-25T14:44:50.044Z,97051.66
2023-02-25T14:46:57.728Z,97049.75
2023-02-25T14:49:06.419Z,97054.50
2023-02-25T14:51:40.362Z,97057.09
2023-02-25T14:54:00.877Z,97070.22
2023-02-25T14:56:32.518Z,97058.50
2023-02-25T14:58:52.039Z,97066.06
2023-02-25T15:01:10.460Z,97066.41
2023-02-25T15:03:31.957Z,97067.09
2023-02-25T15:06:07.895Z,97067.56
2023-02-25T15:08:26.815Z,97069.34
2023-02-25T15:10:41.752Z,97070.03
2023-02-25T15:12:58.561Z,97070.03
2023-02-25T15:15:21.104Z,97077.50
2023-02-25T15:17:46.660Z,97080.91
2023-02-25T15:20:02.620Z,97077.50
2023-02-25T15:22:22.719Z,97084.22
2023-02-25T15:24:47.002Z,97085.41
2023-02-25T15:26:50.435Z,97082.91
2023-02-25T15:28:54.958Z,97089.19
2023-02-25T15:31:11.469Z,97096.81
2023-02-25T15:33:36.571Z,97106.34
2023-02-25T15:36:00.919Z,97112.09
2023-02-25T15:38:09.343Z,97112.78
2023-02-25T15:40:52.069Z,97119.81
2023-02-25T15:42:56.332Z,97128.63
2023-02-25T15:45:40.385Z,97140.44
2023-02-25T15:47:43.920Z,97136.72
2023-02-25T15:49:49.440Z,97136.44
2023-02-25T15:51:54.662Z,97128.34
2023-02-25T15:53:59.704Z,97128.97
2023-02-25T15:56:25.374Z,97134.13
2023-02-25T15:58:46.107Z,97132.50
2023-02-25T16:00:54.510Z,97137.78
2023-02-25T16:03:01.741Z,97139.00
2023-02-25T16:05:18.023Z,97150.09
2023-02-25T16:07:22.910Z,97147.59
2023-02-25T16:09:28.686Z,97154.44
2023-02-25T16:11:36.319Z,97147.38
2023-02-25T16:13:42.970Z,97150.41
2023-02-25T16:15:49.059Z,97154.66
2023-02-25T16:17:54.724Z,97152.97
2023-02-25T16:20:00.763Z,97163.97
2023-02-25T16:22:09.248Z,97163.69
2023-02-25T16:24:14.048Z,97167.91
2023-02-25T16:26:28.423Z,97181.50
2023-02-25T16:28:39.689Z,97177.84
2023-02-25T16:30:47.661Z,97179.72
2023-02-25T16:32:56.823Z,97192.06
2023-02-25T16:35:04.170Z,97193.91
2023-02-25T16:37:12.108Z,97188.91
2023-02-25T16:39:18.942Z,97191.91
2023-02-25T16:41:30.278Z,97190.38
2023-02-25T16:43:40.582Z,97190.69
2023-02-25T16:45:45.389Z,97191.50
2023-02-25T16:47:59.841Z,97192.53
2023-02-25T16:50:07.797Z,97188.38
2023-02-25T16:52:18.332Z,97197.72
2023-02-25T16:54:23.821Z,97196.88
2023-02-25T16:56:29.856Z,97200.31
2023-02-25T16:58:32.992Z,97203.72
2023-02-25T17:00:37.269Z,97203.72
2023-02-25T17:02:45.180Z,97204.53
2023-02-25T17:04:50.284Z,97212.31
2023-02-25T17:07:08.003Z,97220.25
2023-02-25T17:09:23.529Z,97234.88
2023-02-25T17:11:28.594Z,97245.22
2023-02-25T17:13:34.506Z,97243.56
2023-02-25T17:15:37.920Z,97255.44
2023-02-25T17:17:42.686Z,97262.22
2023-02-25T17:19:45.793Z,97258.81
2023-02-25T17:21:52.958Z,97265.06
2023-02-25T17:23:56.911Z,97269.69
2023-02-25T17:26:00.456Z,97275.66
2023-02-25T17:28:06.358Z,97279.47
2023-02-25T17:30:39.279Z,97277.38
2023-02-25T17:32:45.138Z,97275.44
2023-02-25T17:34:49.491Z,97279.81
2023-02-25T17:36:53.053Z,97275.84
2023-02-25T17:38:58.493Z,97273.00
2023-02-25T17:41:01.673Z,97281.63
2023-02-25T17:43:23.763Z,97273.75
2023-02-25T17:45:44.340Z,97272.38
2023-02-25T17:47:47.535Z,97278.53
2023-02-25T17:49:51.335Z,97285.47
2023-02-25T17:51:56.403Z,97288.38
2023-02-25T17:54:01.223Z,97292.22
2023-02-25T17:56:26.529Z,97297.97
2023-02-25T17:58:35.418Z,97293.41
2023-02-25T18:00:39.114Z,97304.22
2023-02-25T18:02:44.229Z,97308.81
2023-02-25T18:04:47.592Z,97321.19
2023-02-25T18:06:50.757Z,97323.44
2023-02-25T18:08:55.308Z,97330.66
2023-02-25T18:11:01.693Z,97331.34
2023-02-25T18:13:05.645Z,97330.31
2023-02-25T18:15:20.912Z,97332.66
2023-02-25T18:17:26.968Z,97334.16
2023-02-25T18:19:38.074Z,97326.97
2023-02-25T18:21:42.603Z,97332.81
2023-02-25T18:23:45.942Z,97337.72
2023-02-25T18:25:51.824Z,97349.59
2023-02-25T18:27:55.753Z,97354.59
2023-02-25T18:30:01.553Z,97351.13
2023-02-25T18:32:06.316Z,97349.19
2023-02-25T18:34:09.442Z,97354.19
2023-02-25T18:36:18.034Z,97354.09
2023-02-25T18:38:23.197Z,97353.19
2023-02-25T18:40:29.565Z,97362.56
2023-02-25T18:42:33.275Z,97359.91
2023-02-25T18:44:36.431Z,97360.75
2023-02-25T18:46:39.614Z,97365.06
2023-02-25T18:48:44.166Z,97363.41
2023-02-25T18:50:47.409Z,97363.41
2023-02-25T18:52:51.051Z,97361.75
2023-02-25T18:54:54.351Z,97368.59
2023-02-25T18:56:57.570Z,97363.59
2023-02-25T18:59:00.665Z,97365.31
2023-02-25T19:01:03.980Z,97365.84
2023-02-25T19:03:09.965Z,97371.28
2023-02-25T19:05:16.031Z,97368.53
2023-02-25T19:07:19.108Z,97365.09
2023-02-25T19:09:23.822Z,97367.75
2023-02-25T19:11:32.099Z,97365.25
2023-02-25T19:13:36.624Z,97371.34
2023-02-25T19:15:39.788Z,97379.25
2023-02-25T19:17:43.017Z,97377.59
2023-02-25T19:19:46.437Z,97377.75
2023-02-25T19:21:50.905Z,97377.66
2023-02-25T19:23:55.437Z,97381.22
2023-02-25T19:26:00.797Z,97374.59
2023-02-25T19:28:04.732Z,97382.41
2023-02-25T19:30:12.436Z,97384.16
2023-02-25T19:32:16.569Z,97381.56
2023-02-25T19:34:20.006Z,97388.56
2023-02-25T19:36:23.352Z,97399.88
2023-02-25T19:38:27.940Z,97391.47
2023-02-25T19:40:31.261Z,97395.97
2023-02-25T19:42:34.632Z,97392.13
2023-02-25T19:44:38.475Z,97399.28
2023-02-25T19:46:41.567Z,97396.84
2023-02-25T19:48:44.659Z,97397.91
2023-02-25T19:50:47.702Z,97407.56
2023-02-25T19:52:51.257Z,97409.25
2023-02-25T19:54:56.123Z,97405.97
2023-02-25T19:56:59.430Z,97413.78
2023-02-25T19:59:02.583Z,97418.94
2023-02-25T20:01:08.192Z,97420.69
2023-02-25T20:03:11.371Z,97418.19
2023-02-25T20:05:15.601Z,97430.19
2023-02-25T20:07:18.749Z,97431.09
2023-02-25T20:09:21.858Z,97434.56
2023-02-25T20:11:26.357Z,97444.72
2023-02-25T20:13:29.480Z,97447.28
2023-02-25T20:15:32.637Z,97453.00
2023-02-25T20:17:37.279Z,97449.06
2023-02-25T20:19:40.401Z,97448.31
2023-02-25T20:21:43.600Z,97447.75
2023-02-25T20:23:46.726Z,97448.50
2023-02-25T20:25:50.023Z,97453.97
2023-02-25T20:27:54.446Z,97455.25
2023-02-25T20:29:57.641Z,97451.91
2023-02-25T20:32:00.912Z,97461.22
2023-02-25T20:34:05.786Z,97458.03
2023-02-25T20:36:19.240Z,97461.50
2023-02-25T20:38:26.949Z,97473.13
2023-02-25T20:40:30.279Z,97473.34
2023-02-25T20:42:33.530Z,97464.88
2023-02-25T20:44:38.300Z,97465.63
2023-02-25T20:46:42.693Z,97463.50
2023-02-25T20:48:46.120Z,97470.13
2023-02-25T20:50:49.597Z,97471.19
2023-02-25T20:52:52.955Z,97468.91
2023-02-25T20:54:56.222Z,97475.84
2023-02-25T20:56:59.305Z,97470.75
2023-02-25T20:59:02.877Z,97473.56
2023-02-25T21:01:07.888Z,97471.19
2023-02-25T21:03:11.052Z,97476.47
2023-02-25T21:05:14.078Z,97475.88
2023-02-25T21:07:17.593Z,97472.63
2023-02-25T21:09:20.770Z,97478.72
2023-02-25T21:11:25.076Z,97468.28
2023-02-25T21:13:28.375Z,97477.75
2023-02-25T21:15:31.608Z,97477.75
2023-02-25T21:17:36.086Z,97481.50
2023-02-25T21:19:39.372Z,97483.31
2023-02-25T21:21:42.339Z,97490.28
2023-02-25T21:23:45.661Z,97480.47
2023-02-25T21:25:48.796Z,97485.69
2023-02-25T21:27:51.965Z,97489.44
2023-02-25T21:29:55.140Z,97495.59
2023-02-25T21:31:59.074Z,97491.78
2023-02-25T21:34:04.163Z,97500.66
2023-02-25T21:36:08.428Z,97503.28
2023-02-25T21:38:11.513Z,97508.25
2023-02-25T21:40:14.711Z,97505.41
2023-02-25T21:42:17.846Z,97513.88
2023-02-25T21:44:21.094Z,97510.28
2023-02-25T21:46:24.654Z,97512.91
2023-02-25T21:48:29.086Z,97514.91
2023-02-25T21:50:34.013Z,97513.19
2023-02-25T21:52:37.151Z,97515.00
2023-02-25T21:54:40.222Z,97518.53
2023-02-25T21:56:43.309Z,97515.69
2023-02-25T21:58:46.775Z,97515.28
2023-02-25T22:00:50.063Z,97522.50
2023-02-25T22:02:53.632Z,97523.84
2023-02-25T22:04:56.757Z,97519.31
2023-02-25T22:07:01.229Z,97520.44
2023-02-25T22:09:06.272Z,97519.25
2023-02-25T22:11:12.756Z,97518.06
2023-02-25T22:13:15.900Z,97513.25
2023-02-25T22:15:19.192Z,97519.06
2023-02-25T22:17:22.350Z,97509.59
2023-02-25T22:19:25.570Z,97514.13
2023-02-25T22:21:30.125Z,97507.84
2023-02-25T22:23:34.664Z,97511.72
2023-02-25T22:25:37.755Z,97506.91
2023-02-25T22:27:40.881Z,97510.44
2023-02-25T22:29:44.071Z,97509.09
2023-02-25T22:31:47.336Z,97512.00
2023-02-25T22:33:50.415Z,97515.47
2023-02-25T22:35:57.915Z,97507.06
2023-02-25T22:38:00.989Z,97512.41
2023-02-25T22:40:06.215Z,97518.81
2023-02-25T22:42:09.363Z,97523.06
2023-02-25T22:44:14.751Z,97524.84
2023-02-25T22:46:20.403Z,97520.81
2023-02-25T22:48:23.569Z,97524.66
2023-02-25T22:50:29.093Z,97526.47
2023-02-25T22:52:32.253Z,97527.28
2023-02-25T22:54:36.236Z,97530.94
2023-02-25T22:56:41.139Z,97534.22
2023-02-25T22:58:44.717Z,97532.38
2023-02-25T23:00:48.279Z,97532.66
2023-02-25T23:02:52.094Z,97526.13
2023-02-25T23:04:55.572Z,97532.78
2023-02-25T23:06:58.760Z,97531.00
2023-02-25T23:09:01.898Z,97534.66
2023-02-25T23:11:10.114Z,97523.75
2023-02-25T23:13:17.340Z,97535.63
2023-02-25T23:15:20.471Z,97534.72
2023-02-25T23:17:23.816Z,97540.63
2023-02-25T23:19:28.213Z,97545.50
2023-02-25T23:21:32.518Z,97541.00
2023-02-25T23:23:38.629Z,97540.25
2023-02-25T23:25:43.238Z,97546.88
2023-02-25T23:27:46.464Z,97545.72
2023-02-25T23:29:50.849Z,97548.09
2023-02-25T23:31:54.030Z,97545.34
2023-02-25T23:33:57.919Z,97540.72
2023-02-25T23:36:02.083Z,97550.59
2023-02-25T23:38:05.070Z,97553.88
2023-02-25T23:40:11.871Z,97555.41
2023-02-25T23:42:17.417Z,97552.72
2023-02-25T23:44:20.800Z,97558.56
2023-02-25T23:46:27.357Z,97556.00
2023-02-25T23:48:30.765Z,97560.22
2023-02-25T23:50:33.998Z,97562.53
2023-02-25T23:52:37.133Z,97563.41
2023-02-25T23:54:40.333Z,97559.84
2023-02-25T23:56:43.626Z,97571.78
2023-02-25T23:58:49.942Z,97569.78
